Time;durP1;ratioP1;P1;durP2;ratioP2;P2;SDS_P1;SDS_P2;PMS_P1;PMS_P2;Temp;Humidity;BMP_temperature;BMP_pressure;BME280_temperature;BME280_humidity;BME280_pressure;Samples;Min_cycle;Max_cycle;Signal;HPM_P1;HPM_P2
2022/05/11 00:01:34;;;;;;;;;15.25;15.00;;;;;19.20;54.43;100882.34;5044096;28;45306;-81
2022/05/11 00:04:01;;;;;;;;;16.25;16.00;;;;;19.09;54.63;100879.69;5045747;28;45332;-80
2022/05/11 00:06:27;;;;;;;;;13.25;13.00;;;;;19.27;55.07;100913.47;5028833;28;45224;-80
2022/05/11 00:08:54;;;;;;;;;16.25;16.00;;;;;19.20;54.43;100904.56;5028031;28;45652;-80
2022/05/11 00:11:20;;;;;;;;;18.25;17.50;;;;;19.21;54.92;100897.44;5036731;28;45162;-79
2022/05/11 00:13:46;;;;;;;;;18.00;16.50;;;;;19.29;55.08;100915.25;5030347;28;45583;-80
2022/05/11 00:16:12;;;;;;;;;13.50;13.50;;;;;19.30;54.58;100906.34;5029055;28;45203;-80
2022/05/11 00:18:39;;;;;;;;;16.50;15.25;;;;;19.01;54.51;100861.03;5027795;28;45358;-80
2022/05/11 00:21:05;;;;;;;;;17.25;16.25;;;;;19.17;54.51;100882.38;5046049;28;45248;-80
2022/05/11 00:23:31;;;;;;;;;16.50;16.25;;;;;19.19;54.63;100892.13;5031466;28;45236;-79
2022/05/11 00:25:56;;;;;;;;;14.50;14.00;;;;;19.10;54.09;100869.91;5028328;28;45024;-81
2022/05/11 00:28:22;;;;;;;;;14.50;13.50;;;;;18.78;54.39;100810.38;5030944;28;45962;-80
2022/05/11 00:30:48;;;;;;;;;17.25;16.25;;;;;19.10;54.51;100868.13;5046988;28;45354;-80
2022/05/11 00:33:14;;;;;;;;;15.75;15.00;;;;;18.82;54.68;100827.25;5046187;28;45072;-80
2022/05/11 00:35:42;;;;;;;;;15.00;14.50;;;;;18.92;54.80;100846.81;5048037;28;45194;-81
2022/05/11 00:38:07;;;;;;;;;14.75;14.75;;;;;18.95;55.03;100857.44;5045914;28;45423;-81
2022/05/11 00:40:38;;;;;;;;;15.25;15.25;;;;;18.84;55.17;100849.44;5046395;28;45084;-81
2022/05/11 00:43:03;;;;;;;;;14.25;13.50;;;;;18.74;55.27;100844.97;5035766;28;45137;-82
2022/05/11 00:45:28;;;;;;;;;16.00;16.00;;;;;18.75;55.25;100847.63;5043843;28;45369;-80
2022/05/11 00:48:01;;;;;;;;;16.50;16.00;;;;;18.47;55.34;100804.06;5036579;28;45336;-81
2022/05/11 00:50:34;;;;;;;;;17.00;17.00;;;;;18.42;55.71;100800.50;5047618;28;45621;-79
2022/05/11 00:53:11;;;;;;;;;15.75;15.25;;;;;18.35;55.84;100788.03;5031888;28;45151;-78
2022/05/11 00:55:41;;;;;;;;;16.75;15.00;;;;;18.61;56.17;100848.44;5024151;28;45346;-79
2022/05/11 00:58:17;;;;;;;;;16.50;15.75;;;;;18.33;56.36;100807.56;5027394;28;47314;-80
2022/05/11 01:00:44;;;;;;;;;18.00;16.50;;;;;18.21;56.38;100801.28;5044922;28;45597;-79
2022/05/11 01:03:18;;;;;;;;;15.50;15.00;;;;;18.33;56.95;100816.41;5043152;28;45281;-80
2022/05/11 01:05:45;;;;;;;;;16.50;14.25;;;;;18.44;56.46;100843.06;5025922;28;45188;-80
2022/05/11 01:08:13;;;;;;;;;17.00;16.00;;;;;18.37;56.49;100842.13;5027321;28;45219;-80
2022/05/11 01:10:40;;;;;;;;;17.50;17.00;;;;;18.28;56.92;100831.47;5034466;28;45918;-79
2022/05/11 01:13:08;;;;;;;;;17.75;17.00;;;;;18.04;57.20;100792.34;5046912;28;44903;-81
2022/05/11 01:15:33;;;;;;;;;15.25;15.25;;;;;18.03;57.17;100796.78;5034697;28;45178;-79
2022/05/11 01:18:02;;;;;;;;;15.75;15.00;;;;;18.03;57.07;100794.13;5031684;28;45257;-80
2022/05/11 01:20:30;;;;;;;;;15.50;14.00;;;;;18.26;56.96;100827.91;5030203;28;45800;-81
2022/05/11 01:23:07;;;;;;;;;14.50;14.25;;;;;18.30;57.21;100835.03;5031482;28;45311;-79
2022/05/11 01:25:32;;;;;;;;;17.00;17.00;;;;;17.94;56.82;100775.44;5028499;28;45005;-79
2022/05/11 01:28:11;;;;;;;;;16.50;16.00;;;;;18.07;56.73;100787.03;5027277;28;46128;-80
2022/05/11 01:31:05;;;;;;;;;18.25;17.25;;;;;18.31;57.26;100831.47;5029502;28;45370;-81
2022/05/11 01:33:31;;;;;;;;;18.25;17.00;;;;;17.87;56.69;100751.47;5035418;28;45231;-79
2022/05/11 01:36:31;;;;;;;;;16.50;15.50;;;;;18.31;56.96;100819.06;5035600;28;45455;-79
2022/05/11 01:39:01;;;;;;;;;16.00;15.25;;;;;18.15;56.85;100803.03;5007275;28;46253;-79
2022/05/11 01:41:37;;;;;;;;;16.75;16.25;;;;;18.35;56.28;100822.63;5030676;28;45619;-81
2022/05/11 01:44:07;;;;;;;;;17.00;16.25;;;;;18.36;56.20;100818.19;5036491;28;45206;-80
2022/05/11 01:46:33;;;;;;;;;17.75;16.50;;;;;18.29;56.01;100809.31;5040263;28;45397;-81
2022/05/11 01:48:59;;;;;;;;;16.75;15.75;;;;;18.28;56.29;100812.84;5039919;28;46257;-80
2022/05/11 01:51:24;;;;;;;;;16.00;15.00;;;;;18.18;55.88;100789.75;5030353;28;45133;-79
2022/05/11 01:53:50;;;;;;;;;17.00;15.75;;;;;18.31;56.26;100816.41;5039863;28;45324;-81
2022/05/11 01:56:21;;;;;;;;;15.00;14.50;;;;;18.33;56.40;100832.38;5028929;28;45104;-79
2022/05/11 01:58:48;;;;;;;;;15.75;15.75;;;;;18.03;56.08;100779.94;5031042;28;45306;-79
2022/05/11 02:01:15;;;;;;;;;14.75;13.50;;;;;18.20;56.43;100810.16;5028117;28;45275;-81
2022/05/11 02:03:41;;;;;;;;;17.75;17.75;;;;;17.89;56.07;100755.94;5030050;28;45585;-80
2022/05/11 02:08:50;;;;;;;;;16.00;15.50;;;;;17.96;55.97;100789.63;5049951;28;45157;-83
2022/05/11 02:11:15;;;;;;;;;18.50;16.50;;;;;17.86;56.58;100774.50;5048735;28;45433;-79
2022/05/11 02:13:41;;;;;;;;;18.75;18.00;;;;;18.13;56.50;100824.31;5044986;28;45268;-81
2022/05/11 02:16:07;;;;;;;;;16.25;15.25;;;;;17.88;56.60;100788.72;5036027;28;45092;-83
2022/05/11 02:18:33;;;;;;;;;17.00;17.00;;;;;17.61;57.01;100740.69;5044780;28;45440;-82
2022/05/11 02:20:58;;;;;;;;;19.00;17.50;;;;;17.99;56.99;100818.91;5049841;28;45491;-83
2022/05/11 02:23:25;;;;;;;;;19.00;18.25;;;;;17.83;57.10;100792.22;5048494;28;45312;-80
2022/05/11 02:25:52;;;;;;;;;16.25;16.00;;;;;17.84;57.44;100802.00;5033926;28;45048;-80
2022/05/11 02:28:21;;;;;;;;;16.00;15.75;;;;;17.81;57.53;100807.28;5037872;28;45406;-82
2022/05/11 02:30:47;;;;;;;;;15.75;15.75;;;;;17.63;56.96;100774.34;5029864;28;45786;-82
2022/05/11 02:33:14;;;;;;;;;18.75;18.50;;;;;17.87;57.18;100823.25;5039498;28;45193;-82
2022/05/11 02:35:40;;;;;;;;;18.75;17.75;;;;;17.50;57.36;100752.13;5048257;28;45464;-84
2022/05/11 02:38:09;;;;;;;;;18.00;17.25;;;;;17.79;57.61;100807.28;5034694;28;45839;-80
2022/05/11 02:40:39;;;;;;;;;18.25;16.50;;;;;17.64;57.42;100791.22;5030055;28;45776;-79
2022/05/11 02:43:06;;;;;;;;;14.50;13.75;;;;;17.46;57.62;100758.28;5029699;28;45258;-81
2022/05/11 02:45:33;;;;;;;;;14.00;14.00;;;;;17.39;58.01;100756.50;5029464;28;45209;-80
2022/05/11 02:48:01;;;;;;;;;15.25;15.00;;;;;17.48;58.41;100777.78;5032281;28;46924;-80
2022/05/11 02:50:34;;;;;;;;;17.75;17.75;;;;;17.58;58.24;100807.97;5035358;28;45219;-83
2022/05/11 02:53:02;;;;;;;;;18.75;18.75;;;;;17.32;58.59;100772.38;5042333;28;45225;-82
2022/05/11 02:55:28;;;;;;;;;17.50;17.50;;;;;17.31;58.25;100771.47;5047753;28;45202;-79
2022/05/11 02:57:54;;;;;;;;;18.25;17.50;;;;;17.40;58.59;100783.94;5044866;28;45168;-82
2022/05/11 03:00:20;;;;;;;;;18.00;17.00;;;;;17.46;58.92;100807.91;5044855;28;45012;-79
2022/05/11 03:02:46;;;;;;;;;17.25;16.25;;;;;17.40;59.01;100811.41;5031853;28;45445;-80
2022/05/11 03:05:13;;;;;;;;;18.00;17.50;;;;;17.28;58.93;100782.06;5036648;28;45359;-80
2022/05/11 03:07:39;;;;;;;;;15.50;15.50;;;;;17.33;59.20;100798.94;5026821;28;46365;-78
2022/05/11 03:10:06;;;;;;;;;15.50;14.75;;;;;17.08;58.75;100755.34;5027377;28;45190;-79
2022/05/11 03:12:32;;;;;;;;;16.25;15.75;;;;;17.32;58.95;100801.59;5046237;28;45058;-79
2022/05/11 03:14:59;;;;;;;;;13.25;13.25;;;;;17.36;59.14;100804.28;5044739;28;45282;-79
2022/05/11 03:17:25;;;;;;;;;17.50;15.75;;;;;17.37;58.62;100798.09;5035305;28;47182;-80
2022/05/11 03:19:51;;;;;;;;;19.25;18.25;;;;;17.11;59.02;100755.38;5036096;28;45132;-79
2022/05/11 03:22:17;;;;;;;;;16.25;15.25;;;;;17.37;58.85;100807.81;5040832;28;45142;-80
2022/05/11 03:24:42;;;;;;;;;18.00;17.75;;;;;17.18;58.77;100772.25;5040680;28;45028;-81
2022/05/11 03:27:08;;;;;;;;;20.50;18.75;;;;;17.03;58.83;100738.50;5029202;28;45447;-79
2022/05/11 03:29:34;;;;;;;;;14.75;14.75;;;;;17.16;58.78;100763.38;5027815;28;45343;-79
2022/05/11 03:34:43;;;;;;;;;15.75;15.00;;;;;17.00;59.35;100746.44;5036981;28;45134;-79
2022/05/11 03:37:12;;;;;;;;;14.50;14.50;;;;;17.27;59.01;100798.88;5027126;28;45850;-80
2022/05/11 03:39:38;;;;;;;;;16.25;16.25;;;;;17.26;59.12;100799.78;5028458;28;45641;-80
2022/05/11 03:42:05;;;;;;;;;17.00;16.50;;;;;16.89;59.48;100735.72;5028270;28;45283;-78
2022/05/11 03:44:31;;;;;;;;;18.75;18.75;;;;;17.23;59.40;100795.31;5036022;28;45179;-81
2022/05/11 03:46:57;;;;;;;;;16.50;16.50;;;;;17.22;59.20;100795.31;5038518;28;45850;-81
2022/05/11 03:49:22;;;;;;;;;18.00;16.50;;;;;17.02;59.21;100761.50;5028614;28;45216;-81
2022/05/11 03:51:49;;;;;;;;;16.75;16.00;;;;;17.11;59.22;100778.41;5026550;28;45581;-80
2022/05/11 03:54:14;;;;;;;;;15.50;15.00;;;;;17.03;59.74;100760.63;5044658;28;45139;-79
2022/05/11 03:56:39;;;;;;;;;16.00;15.50;;;;;16.68;59.62;100712.50;5028336;28;45443;-81
2022/05/11 03:59:05;;;;;;;;;19.25;17.50;;;;;17.12;59.82;100790.78;5030225;28;45139;-80
2022/05/11 04:01:30;;;;;;;;;15.50;15.50;;;;;16.75;59.91;100729.41;5039604;28;44980;-79
2022/05/11 04:03:56;;;;;;;;;17.25;16.00;;;;;16.84;59.86;100758.69;5034065;28;45298;-79
2022/05/11 04:06:21;;;;;;;;;19.25;17.25;;;;;16.55;60.11;100715.94;5040605;28;45631;-81
2022/05/11 04:08:46;;;;;;;;;18.00;17.25;;;;;16.71;60.38;100748.81;5045828;28;45149;-80
2022/05/11 04:11:12;;;;;;;;;17.00;16.75;;;;;16.67;60.25;100758.50;5043389;28;45310;-82
2022/05/11 04:13:40;;;;;;;;;18.00;18.00;;;;;16.51;60.41;100736.22;5021594;28;45391;-80
2022/05/11 04:16:07;;;;;;;;;16.75;15.75;;;;;16.66;60.36;100758.50;5009956;28;47426;-84
2022/05/11 04:18:33;;;;;;;;;16.25;15.75;;;;;16.73;60.87;100779.81;5012300;28;45983;-83
2022/05/11 04:20:58;;;;;;;;;18.50;17.75;;;;;16.52;60.75;100743.31;5011029;28;46845;-81
2022/05/11 04:23:24;;;;;;;;;16.00;14.75;;;;;16.75;60.55;100799.31;5025207;28;45621;-82
2022/05/11 04:25:49;;;;;;;;;18.75;17.50;;;;;16.76;60.92;100813.47;5025812;28;46205;-81
2022/05/11 04:28:14;;;;;;;;;17.00;16.75;;;;;16.44;61.13;100760.00;5022848;28;45450;-83
2022/05/11 04:30:40;;;;;;;;;18.25;17.50;;;;;16.33;60.97;100757.25;5034603;28;45620;-81
2022/05/11 04:33:07;;;;;;;;;17.50;16.75;;;;;16.62;61.40;100815.94;5035525;28;45228;-82
2022/05/11 04:35:34;;;;;;;;;15.75;15.25;;;;;16.58;61.43;100808.81;5035426;28;45604;-80
2022/05/11 04:38:01;;;;;;;;;18.25;16.50;;;;;16.54;61.32;100812.28;5035592;28;45073;-83
2022/05/11 04:40:28;;;;;;;;;19.00;18.25;;;;;16.45;61.77;100801.56;5029910;28;45293;-80
2022/05/11 04:42:55;;;;;;;;;18.75;18.00;;;;;16.52;61.55;100806.97;5031266;28;45382;-80
2022/05/11 04:45:20;;;;;;;;;16.50;16.25;;;;;16.32;61.51;100773.16;5038060;28;45764;-82
2022/05/11 04:47:46;;;;;;;;;21.50;19.00;;;;;16.54;62.02;100811.41;5031209;28;45116;-81
2022/05/11 04:50:14;;;;;;;;;16.00;16.00;;;;;16.28;61.77;100772.22;5033318;28;45542;-80
2022/05/11 04:52:39;;;;;;;;;18.25;18.25;;;;;16.54;62.04;100808.75;5037449;28;45423;-81
2022/05/11 04:55:07;;;;;;;;;20.75;20.75;;;;;16.47;62.20;100791.88;5039702;28;45557;-81
2022/05/11 04:57:33;;;;;;;;;15.25;15.00;;;;;16.56;62.20;100805.25;5036149;28;46518;-80
2022/05/11 04:59:58;;;;;;;;;18.50;18.00;;;;;16.46;62.24;100787.47;5036313;28;45255;-79
2022/05/11 05:02:25;;;;;;;;;18.50;17.75;;;;;16.65;62.22;100800.06;5032226;28;45418;-81
2022/05/11 05:04:51;;;;;;;;;16.50;16.50;;;;;16.67;62.28;100802.72;5031599;28;46067;-80
2022/05/11 05:07:18;;;;;;;;;19.25;19.25;;;;;16.37;61.99;100748.44;5032809;28;45204;-83
2022/05/11 05:09:44;;;;;;;;;18.75;18.75;;;;;16.65;62.41;100796.50;5030017;28;45059;-81
2022/05/11 05:12:11;;;;;;;;;18.50;18.50;;;;;16.68;62.20;100794.75;5044332;28;45470;-81
2022/05/11 05:14:38;;;;;;;;;19.00;18.25;;;;;16.35;62.31;100728.97;5043562;28;46046;-81
2022/05/11 05:17:06;;;;;;;;;20.00;19.50;;;;;16.76;62.49;100797.56;5041914;28;45805;-81
2022/05/11 05:19:32;;;;;;;;;23.75;23.75;;;;;16.79;62.09;100797.56;5047239;28;45238;-83
2022/05/11 05:21:59;;;;;;;;;22.00;20.00;;;;;16.62;62.03;100746.94;5048201;28;45194;-81
2022/05/11 05:24:24;;;;;;;;;21.25;20.75;;;;;16.92;62.65;100794.16;5044095;28;45652;-81
2022/05/11 05:26:50;;;;;;;;;21.75;20.25;;;;;16.76;62.29;100757.72;5065497;28;45231;-81
2022/05/11 05:31:59;;;;;;;;;19.25;18.25;;;;;16.77;61.88;100749.78;5069844;28;45288;-80
2022/05/11 05:34:25;;;;;;;;;12.50;12.50;;;;;16.99;61.39;100771.19;5064182;28;45170;-80
2022/05/11 05:36:50;;;;;;;;;18.00;16.50;;;;;17.22;61.41;100792.66;5030177;28;44926;-84
2022/05/11 05:39:16;;;;;;;;;18.75;18.00;;;;;17.14;61.65;100776.66;5046190;28;44957;-80
2022/05/11 05:41:41;;;;;;;;;16.00;16.00;;;;;17.35;60.93;100812.25;5029982;28;45164;-81
2022/05/11 05:44:09;;;;;;;;;18.75;18.75;;;;;17.20;60.78;100767.84;5031177;28;46049;-80
2022/05/11 05:46:36;;;;;;;;;16.25;15.00;;;;;17.44;60.32;100807.00;5033352;28;45276;-80
2022/05/11 05:49:02;;;;;;;;;16.50;16.25;;;;;17.12;60.25;100748.31;5045396;28;45170;-80
2022/05/11 05:51:27;;;;;;;;;19.75;19.00;;;;;17.21;60.47;100756.34;5042652;28;45308;-80
2022/05/11 05:53:53;;;;;;;;;18.50;17.75;;;;;17.53;60.14;100813.25;5050256;28;45983;-80
2022/05/11 05:56:18;;;;;;;;;16.75;16.00;;;;;17.32;59.90;100773.25;5037021;28;45436;-79
2022/05/11 05:58:44;;;;;;;;;16.25;16.00;;;;;17.60;59.85;100813.31;5029963;28;45285;-79
2022/05/11 06:01:10;;;;;;;;;19.50;18.25;;;;;17.60;59.95;100800.03;5047246;28;45338;-80
2022/05/11 06:03:37;;;;;;;;;17.75;17.25;;;;;17.37;59.79;100766.19;5049357;28;46042;-79
2022/05/11 06:06:03;;;;;;;;;18.75;17.75;;;;;17.55;59.73;100784.06;5049870;28;45228;-80
2022/05/11 06:08:29;;;;;;;;;18.50;17.25;;;;;17.80;59.37;100817.03;5050077;28;45183;-80
2022/05/11 06:10:56;;;;;;;;;19.25;18.75;;;;;17.62;59.50;100783.19;5048788;28;45148;-80
2022/05/11 06:13:23;;;;;;;;;19.00;18.25;;;;;17.70;59.15;100783.25;5030560;28;45611;-82
2022/05/11 06:15:54;;;;;;;;;16.50;16.50;;;;;17.66;59.10;100765.50;5044905;28;45189;-81
2022/05/11 06:18:21;;;;;;;;;18.00;16.75;;;;;17.83;58.80;100790.44;5049255;28;45147;-81
2022/05/11 06:20:51;;;;;;;;;18.00;16.75;;;;;17.77;58.39;100770.03;5033106;28;45362;-81
2022/05/11 06:23:20;;;;;;;;;15.75;15.75;;;;;17.83;58.49;100761.19;5048691;28;46040;-80
2022/05/11 06:25:46;;;;;;;;;18.00;16.00;;;;;17.93;58.23;100773.69;5049323;28;45859;-81
2022/05/11 06:28:11;;;;;;;;;18.00;17.00;;;;;18.00;58.51;100770.16;5041356;28;45022;-80
2022/05/11 06:30:36;;;;;;;;;19.25;17.75;;;;;18.02;58.55;100768.38;5044481;28;45097;-80
2022/05/11 06:33:05;;;;;;;;;21.33;18.33;;;;;18.03;58.07;100758.66;5028861;28;45340;-80
2022/05/11 06:35:31;;;;;;;;;18.00;16.25;;;;;18.19;58.31;100775.56;5044745;28;45671;-80
2022/05/11 06:38:01;;;;;;;;;16.00;14.75;;;;;18.15;57.69;100758.69;5034840;28;45336;-80
2022/05/11 06:40:26;;;;;;;;;15.50;15.50;;;;;18.23;57.69;100764.06;5029338;28;45462;-80
2022/05/11 06:42:52;;;;;;;;;14.75;14.25;;;;;18.28;57.41;100757.88;5028597;28;45253;-80
2022/05/11 06:45:17;;;;;;;;;14.50;13.75;;;;;18.52;57.03;100790.72;5031603;28;45206;-81
2022/05/11 06:47:46;;;;;;;;;14.25;11.25;;;;;18.66;56.52;100810.28;5043671;28;45208;-93
2022/05/11 06:50:35;;;;;;;;;14.75;13.50;;;;;17.63;56.69;100619.28;5046314;28;45247;-93
2022/05/11 06:53:11;;;;;;;;;13.75;13.00;;;;;18.36;55.97;100728.59;5044683;28;47182;-93
2022/05/11 07:01:06;;;;;;;;;10.75;10.75;;;;;18.73;55.86;100766.00;5043533;28;45155;-91
2022/05/11 07:03:31;;;;;;;;;11.00;9.50;;;;;18.26;54.70;100673.59;5047112;28;47375;-90
2022/05/11 07:06:04;;;;;;;;;11.00;11.00;;;;;18.47;54.01;100710.91;5048313;28;45126;-93
2022/05/11 07:08:41;;;;;;;;;7.75;7.25;;;;;19.05;53.86;100801.53;5032701;28;45110;-93
2022/05/11 07:13:53;;;;;;;;;11.25;8.00;;;;;18.41;53.71;100673.63;5052495;28;45288;-93
2022/05/11 07:16:18;;;;;;;;;1.25;1.25;;;;;18.69;52.55;100713.63;5049674;28;45252;-93
2022/05/11 07:18:43;;;;;;;;;8.25;8.25;;;;;18.43;52.10;100657.66;5050873;28;45222;-88
2022/05/11 07:21:12;;;;;;;;;5.75;5.75;;;;;18.49;51.33;100671.84;5041261;28;45175;-94
2022/05/11 07:23:38;;;;;;;;;8.00;6.75;;;;;18.23;51.16;100612.41;5048908;28;47387;-95
2022/05/11 07:26:03;;;;;;;;;5.00;5.00;;;;;18.13;50.71;100595.56;5042922;28;45207;-89
2022/05/11 07:28:29;;;;;;;;;6.00;6.00;;;;;18.84;50.81;100710.97;5046625;28;45351;-88
2022/05/11 07:30:54;;;;;;;;;5.75;5.75;;;;;19.06;51.15;100741.13;5047667;28;44998;-88
2022/05/11 07:33:20;;;;;;;;;5.50;5.50;;;;;18.95;50.05;100727.81;5050034;28;47204;-92
2022/05/11 07:35:45;;;;;;;;;7.75;7.25;;;;;19.29;49.93;100766.00;5032905;28;45064;-89
2022/05/11 07:38:13;;;;;;;;;8.00;8.00;;;;;19.14;50.12;100733.16;5042457;28;45175;-81
2022/05/11 07:40:40;;;;;;;;;6.00;6.00;;;;;19.43;50.06;100781.09;5042048;28;45198;-81
2022/05/11 07:43:06;;;;;;;;;5.00;5.00;;;;;19.16;49.12;100732.28;5043816;28;46019;-81
2022/05/11 07:45:32;;;;;;;;;6.00;4.50;;;;;19.23;49.70;100743.81;5045530;28;45150;-82
2022/05/11 07:47:58;;;;;;;;;5.50;5.00;;;;;19.33;48.94;100745.56;5044402;28;45141;-81
2022/05/11 07:50:23;;;;;;;;;5.00;5.00;;;;;19.63;48.77;100797.09;5031002;28;45344;-81
2022/05/11 07:52:49;;;;;;;;;7.25;6.25;;;;;19.20;48.94;100720.69;5045956;28;47528;-79
2022/05/11 07:55:16;;;;;;;;;6.00;6.00;;;;;19.76;49.29;100814.88;5047870;28;45096;-80
2022/05/11 08:00:26;;;;;;;;;3.50;3.25;;;;;19.61;48.02;100783.78;5029754;28;45306;-79
2022/05/11 08:02:52;;;;;;;;;5.00;5.00;;;;;19.79;48.13;100821.06;5027828;28;45075;-82
2022/05/11 08:05:20;;;;;;;;;6.25;5.50;;;;;19.80;47.83;100811.28;5028762;28;45096;-82
2022/05/11 08:07:49;;;;;;;;;4.00;4.00;;;;;19.78;48.57;100805.97;5045529;28;44987;-81
2022/05/11 08:10:18;;;;;;;;;4.50;4.50;;;;;19.82;49.09;100807.72;5046515;28;45268;-81
2022/05/11 08:12:44;;;;;;;;;5.50;5.25;;;;;19.53;48.08;100753.53;5030738;28;45401;-81
2022/05/11 08:15:11;;;;;;;;;6.75;5.00;;;;;19.61;47.83;100758.91;5047989;28;45249;-80
2022/05/11 08:17:36;;;;;;;;;4.00;4.00;;;;;19.75;48.17;100783.72;5035030;28;46212;-81
2022/05/11 08:20:07;;;;;;;;;5.00;4.25;;;;;19.78;47.73;100789.06;5027667;28;45159;-81
2022/05/11 08:22:33;;;;;;;;;4.50;4.00;;;;;19.54;47.66;100740.19;5032010;28;45333;-81
2022/05/11 08:24:58;;;;;;;;;5.00;4.00;;;;;19.74;47.69;100760.63;5033226;28;45577;-81
2022/05/11 08:27:28;;;;;;;;;5.00;5.00;;;;;19.87;47.41;100780.16;5044536;28;45047;-81
2022/05/11 08:35:22;;;;;;;;;4.00;4.00;;;;;19.89;46.33;100757.03;5041219;28;45304;-82
2022/05/11 08:37:48;;;;;;;;;4.00;4.00;;;;;20.13;46.29;100790.75;5042595;28;45477;-82
2022/05/11 08:40:42;;;;;;;;;3.50;3.50;;;;;20.33;46.40;100812.91;5040433;28;45340;-80
2022/05/11 08:43:14;;;;;;;;;5.75;5.00;;;;;20.06;46.54;100761.41;4993692;28;45407;-81
2022/05/11 08:46:12;;;;;;;;;7.00;7.00;;;;;20.44;46.96;100813.72;5030639;28;45763;-81
2022/05/11 08:48:51;;;;;;;;;4.75;4.00;;;;;20.28;46.70;100780.88;5042623;28;45705;-81
2022/05/11 08:51:39;;;;;;;;;5.00;5.00;;;;;20.56;46.35;100805.69;5052235;28;45040;-80
2022/05/11 08:54:13;;;;;;;;;5.00;4.00;;;;;20.38;45.79;100767.50;5035566;28;45560;-81
2022/05/11 08:56:40;;;;;;;;;4.25;4.00;;;;;20.49;45.51;100776.34;5038661;28;45602;-81
2022/05/11 08:59:11;;;;;;;;;5.25;5.00;;;;;20.59;45.93;100783.41;5043602;28;44999;-81
2022/05/11 09:01:46;;;;;;;;;6.00;5.75;;;;;20.78;45.20;100795.75;5049628;28;45119;-81
2022/05/11 09:04:16;;;;;;;;;4.75;4.75;;;;;20.72;45.72;100773.56;5050773;28;45234;-81
2022/05/11 09:06:45;;;;;;;;;3.00;3.00;;;;;20.79;44.92;100778.88;5050474;28;45576;-81
2022/05/11 09:09:12;;;;;;;;;4.00;4.00;;;;;20.78;44.19;100766.38;5050944;28;45133;-81
2022/05/11 09:11:50;;;;;;;;;5.00;5.00;;;;;20.86;43.78;100774.34;5050575;28;45158;-81
2022/05/11 09:14:22;;;;;;;;;5.25;4.25;;;;;20.94;43.42;100788.56;5050817;28;45582;-81
2022/05/11 09:16:52;;;;;;;;;3.00;3.00;;;;;21.00;42.87;100787.63;5048113;28;45636;-81
2022/05/11 09:19:25;;;;;;;;;3.25;3.00;;;;;21.16;42.57;100804.41;5050080;28;45154;-81
2022/05/11 09:21:57;;;;;;;;;3.50;3.00;;;;;21.02;43.01;100772.44;5050043;28;45370;-81
2022/05/11 09:24:48;;;;;;;;;2.75;2.75;;;;;21.24;42.17;100806.13;5050222;28;45752;-81
2022/05/11 09:27:33;;;;;;;;;2.75;2.00;;;;;21.28;42.45;100809.66;5050455;28;45165;-81
2022/05/11 09:30:15;;;;;;;;;4.50;4.50;;;;;21.17;42.14;100775.00;5050228;28;44953;-82
2022/05/11 09:32:44;;;;;;;;;3.00;3.00;;;;;21.32;42.20;100792.72;5049932;28;45147;-81
2022/05/11 09:35:24;;;;;;;;;4.75;4.25;;;;;21.47;42.66;100802.41;5049451;28;45449;-81
2022/05/11 09:38:07;;;;;;;;;3.00;3.00;;;;;21.44;42.73;100781.94;5048968;28;45087;-81
2022/05/11 09:40:47;;;;;;;;;3.00;3.00;;;;;21.66;42.20;100806.66;5050181;28;45089;-81
2022/05/11 09:43:30;;;;;;;;;0.00;0.00;;;;;21.62;41.56;100787.13;5050772;28;45240;-81
2022/05/11 09:45:56;;;;;;;;;2.50;2.50;;;;;21.53;40.58;100764.91;5049553;28;45507;-81
2022/05/11 09:48:31;;;;;;;;;3.25;3.25;;;;;21.45;39.62;100742.72;5049867;28;45113;-82
2022/05/11 09:51:17;;;;;;;;;3.00;3.00;;;;;21.83;40.13;100787.78;5050257;28;45004;-81
2022/05/11 09:53:55;;;;;;;;;3.00;3.00;;;;;21.67;39.56;100757.59;5049588;28;45303;-81
2022/05/11 09:56:34;;;;;;;;;4.25;4.25;;;;;21.82;40.36;100775.28;5050023;28;45337;-81
2022/05/11 09:59:21;;;;;;;;;3.25;3.25;;;;;22.05;40.22;100786.63;5050146;28;45342;-81
2022/05/11 10:01:48;;;;;;;;;3.75;3.75;;;;;22.03;39.81;100772.38;5048711;28;45055;-81
2022/05/11 10:04:15;;;;;;;;;3.50;3.00;;;;;22.04;40.24;100763.44;5049961;28;45207;-81
2022/05/11 10:06:51;;;;;;;;;4.25;3.50;;;;;22.14;40.63;100774.94;5049531;28;45370;-81
2022/05/11 10:09:26;;;;;;;;;3.25;3.00;;;;;22.11;39.77;100758.91;5049878;28;45393;-81
2022/05/11 10:11:51;;;;;;;;;6.00;4.50;;;;;22.13;39.92;100747.31;5049795;28;45324;-81
2022/05/11 10:23:04;;;;;;;;;3.25;2.75;;;;;22.60;39.57;100787.72;5049004;28;45163;-81
2022/05/11 10:25:40;;;;;;;;;3.00;3.00;;;;;22.26;39.14;100725.72;5049325;28;45035;-81
2022/05/11 10:28:20;;;;;;;;;5.00;4.00;;;;;22.34;38.46;100751.47;5049578;28;45469;-81
2022/05/11 10:30:58;;;;;;;;;4.75;3.00;;;;;22.71;38.51;100785.81;5048557;28;45748;-81
2022/05/11 10:33:39;;;;;;;;;2.75;2.25;;;;;22.51;38.16;100753.03;5049860;28;45168;-81
2022/05/11 10:36:12;;;;;;;;;4.00;4.00;;;;;22.78;38.15;100798.19;5048343;28;45153;-81
2022/05/11 10:38:51;;;;;;;;;3.00;3.00;;;;;22.63;38.40;100748.38;5049106;28;45756;-81
2022/05/11 10:41:47;;;;;;;;;8.00;6.00;;;;;22.94;38.82;100788.16;5049427;28;45126;-81
2022/05/11 10:44:31;;;;;;;;;4.25;4.25;;;;;23.00;38.30;100798.75;5048419;28;45019;-81
2022/05/11 10:47:18;;;;;;;;;3.00;2.00;;;;;23.07;38.85;100787.06;5047683;28;44992;-81
2022/05/11 10:49:56;;;;;;;;;3.00;3.00;;;;;23.14;39.05;100794.06;5048691;28;45537;-81
2022/05/11 10:52:55;;;;;;;;;4.00;4.00;;;;;23.18;38.95;100782.38;5048363;28;45377;-82
2022/05/11 10:55:42;;;;;;;;;3.00;3.00;;;;;23.21;39.25;100783.28;5048925;28;45133;-81
2022/05/11 10:58:32;;;;;;;;;3.75;3.25;;;;;23.27;38.81;100772.44;5049502;28;45125;-81
2022/05/11 11:01:08;;;;;;;;;2.50;2.25;;;;;23.29;38.93;100776.84;5047809;28;45331;-81
2022/05/11 11:04:08;;;;;;;;;4.00;3.75;;;;;23.35;38.75;100775.84;5048586;28;45328;-81
2022/05/11 11:07:12;;;;;;;;;3.00;3.00;;;;;23.20;38.55;100744.81;4969617;28;45289;-82
2022/05/11 11:09:38;;;;;;;;;4.00;4.00;;;;;23.42;38.67;100775.72;5047310;28;45057;-81
2022/05/11 11:12:22;;;;;;;;;2.33;2.33;;;;;23.49;39.05;100770.25;5048858;28;46156;-81
2022/05/11 11:14:51;;;;;;;;;4.25;2.50;;;;;23.48;39.28;100737.16;5048348;28;45081;-81
2022/05/11 11:17:23;;;;;;;;;3.50;3.50;;;;;23.69;39.46;100757.38;5048488;28;45337;-81
2022/05/11 11:19:58;;;;;;;;;4.25;4.25;;;;;23.73;39.22;100755.53;5048776;28;45197;-82
2022/05/11 11:22:24;;;;;;;;;3.00;3.00;;;;;23.53;39.43;100699.53;5048350;28;45404;-81
2022/05/11 11:25:12;;;;;;;;;6.00;4.25;;;;;23.92;39.13;100763.19;5048385;28;45204;-81
2022/05/11 11:28:00;;;;;;;;;3.00;3.00;;;;;23.94;38.91;100741.69;5047215;28;45380;-81
2022/05/11 11:30:26;;;;;;;;;3.25;3.00;;;;;23.88;39.20;100745.34;5041864;28;45223;-81
2022/05/11 11:33:13;;;;;;;;;2.00;2.00;;;;;23.85;38.53;100717.72;5031678;28;45979;-81
2022/05/11 11:35:41;;;;;;;;;3.00;3.00;;;;;23.84;38.72;100694.44;5030371;28;45309;-81
2022/05/11 11:38:06;;;;;;;;;3.00;3.00;;;;;24.14;38.83;100744.84;5039350;28;45201;-81
2022/05/11 11:40:34;;;;;;;;;3.00;2.00;;;;;24.01;37.77;100708.41;5028538;28;45320;-80
2022/05/11 11:43:38;;;;;;;;;2.00;2.00;;;;;23.97;37.91;100704.03;5032034;28;45163;-82
2022/05/11 11:45:50;;;;;;;;;3.25;3.25;;;;;24.27;37.72;100744.56;5038093;28;45512;-82
2022/05/11 11:48:21;;;;;;;;;2.75;1.75;;;;;24.12;37.68;100725.16;5042135;28;45438;-82
2022/05/11 11:50:49;;;;;;;;;2.00;2.00;;;;;24.27;37.95;100736.50;5048341;28;45216;-82
2022/05/11 11:53:34;;;;;;;;;2.00;2.00;;;;;24.34;37.49;100733.66;5048219;28;45799;-82
2022/05/11 11:56:24;;;;;;;;;3.25;3.00;;;;;24.44;37.44;100742.44;5036466;28;45496;-81
2022/05/11 11:59:30;;;;;;;;;3.00;2.00;;;;;24.40;37.65;100719.22;5029767;28;45001;-82
2022/05/11 12:02:07;;;;;;;;;2.75;2.75;;;;;24.18;37.28;100673.13;5036556;28;45571;-81